createdAt,value
2022-12-03T00:03:52.705Z,96301.75
2022-12-03T00:08:06.994Z,96291.41
2022-12-03T00:12:19.317Z,96298.16
2022-12-03T00:16:32.315Z,96290.50
2022-12-03T00:20:51.079Z,96290.88
2022-12-03T00:25:03.410Z,96290.47
2022-12-03T00:29:25.705Z,96284.78
2022-12-03T00:33:47.962Z,96288.28
2022-12-03T00:38:00.344Z,96290.19
2022-12-03T00:42:12.640Z,96276.63
2022-12-03T00:46:27.374Z,96292.94
2022-12-03T00:50:39.669Z,96286.97
2022-12-03T00:54:52.314Z,96289.78
2022-12-03T00:59:04.794Z,96290.50
2022-12-03T01:03:17.110Z,96289.25
2022-12-03T01:07:29.624Z,96294.03
2022-12-03T01:11:42.219Z,96289.41
2022-12-03T01:15:54.513Z,96290.63
2022-12-03T01:20:08.234Z,96295.16
2022-12-03T01:24:21.318Z,96292.53
2022-12-03T01:28:33.643Z,96285.84
2022-12-03T01:32:45.971Z,96283.50
2022-12-03T01:36:58.688Z,96290.13
2022-12-03T01:41:12.087Z,96289.81
2022-12-03T01:45:24.798Z,96289.13
2022-12-03T01:49:42.966Z,96290.22
2022-12-03T01:53:55.284Z,96295.28
2022-12-03T01:58:20.969Z,96293.00
2022-12-03T02:02:33.887Z,96305.38
2022-12-03T02:06:46.324Z,96304.97
2022-12-03T02:11:03.785Z,96300.94
2022-12-03T02:15:16.268Z,96300.47
2022-12-03T02:19:32.808Z,96301.75
2022-12-03T02:24:06.802Z,96290.88
2022-12-03T02:28:29.170Z,96291.25
2022-12-03T02:32:41.547Z,96287.03
2022-12-03T02:36:53.877Z,96302.91
2022-12-03T02:41:32.798Z,96304.84
2022-12-03T02:45:48.285Z,96295.25
2022-12-03T02:50:01.352Z,96300.50
2022-12-03T02:54:13.840Z,96305.25
2022-12-03T02:58:27.782Z,96304.06
2022-12-03T03:02:42.548Z,96292.03
2022-12-03T03:06:54.970Z,96294.78
2022-12-03T03:11:07.234Z,96288.94
2022-12-03T03:15:19.648Z,96293.97
2022-12-03T03:19:31.966Z,96293.59
2022-12-03T03:23:44.367Z,96292.03
2022-12-03T03:27:56.692Z,96285.00
2022-12-03T03:32:09.078Z,96288.06
2022-12-03T03:36:21.697Z,96285.81
2022-12-03T03:40:34.254Z,96284.41
2022-12-03T03:44:56.615Z,96279.34
2022-12-03T03:49:08.999Z,96278.94
2022-12-03T03:53:22.510Z,96276.53
2022-12-03T03:57:34.908Z,96285.09
2022-12-03T04:01:47.384Z,96274.75
2022-12-03T04:05:59.690Z,96273.53
2022-12-03T04:10:39.455Z,96278.47
2022-12-03T04:14:52.091Z,96264.44
2022-12-03T04:19:04.573Z,96273.41
2022-12-03T04:23:29.279Z,96268.66
2022-12-03T04:28:01.480Z,96260.84
2022-12-03T04:32:32.191Z,96266.03
2022-12-03T04:36:54.578Z,96268.31
2022-12-03T04:41:07.009Z,96275.66
2022-12-03T04:45:19.309Z,96264.75
2022-12-03T04:49:32.050Z,96284.13
2022-12-03T04:53:46.387Z,96279.56
2022-12-03T04:57:58.935Z,96283.41
2022-12-03T05:02:21.265Z,96282.03
2022-12-03T05:06:33.626Z,96281.47
2022-12-03T05:10:45.874Z,96278.94
2022-12-03T05:14:58.191Z,96286.59
2022-12-03T05:19:20.473Z,96280.34
2022-12-03T05:23:32.914Z,96292.06
2022-12-03T05:27:55.171Z,96288.59
2022-12-03T05:32:07.462Z,96292.03
2022-12-03T05:36:19.750Z,96287.28
2022-12-03T05:40:32.061Z,96298.22
2022-12-03T05:44:44.334Z,96294.78
2022-12-03T05:48:56.694Z,96295.63
2022-12-03T05:53:09.722Z,96304.44
2022-12-03T05:57:21.996Z,96293.22
2022-12-03T06:01:35.188Z,96292.06
2022-12-03T06:05:47.492Z,96286.56
2022-12-03T06:09:59.835Z,96294.28
2022-12-03T06:14:12.107Z,96297.06
2022-12-03T06:18:24.428Z,96287.75
2022-12-03T06:22:36.754Z,96281.78
2022-12-03T06:26:49.089Z,96286.91
2022-12-03T06:31:01.614Z,96288.78
2022-12-03T06:35:17.231Z,96291.84
2022-12-03T06:39:29.555Z,96274.03
2022-12-03T06:43:51.858Z,96272.75
2022-12-03T06:48:04.232Z,96287.06
2022-12-03T06:52:25.924Z,96278.84
2022-12-03T06:56:44.869Z,96277.38
2022-12-03T07:00:57.775Z,96273.94
2022-12-03T07:05:10.550Z,96272.25
2022-12-03T07:09:22.867Z,96269.81
2022-12-03T07:13:35.121Z,96271.03
2022-12-03T07:17:47.403Z,96268.78
2022-12-03T07:21:59.701Z,96259.06
2022-12-03T07:26:12.059Z,96262.66
2022-12-03T07:30:26.297Z,96262.19
2022-12-03T07:34:38.571Z,96264.50
2022-12-03T07:38:50.868Z,96269.09
2022-12-03T07:43:03.191Z,96271.13
2022-12-03T07:47:15.575Z,96266.06
2022-12-03T07:51:32.391Z,96262.91
2022-12-03T07:55:44.938Z,96265.53
2022-12-03T07:59:57.238Z,96276.09
2022-12-03T08:04:12.473Z,96288.31
2022-12-03T08:08:25.876Z,96293.63
2022-12-03T08:12:42.676Z,96277.38
2022-12-03T08:16:55.026Z,96271.25
2022-12-03T08:21:14.822Z,96265.69
2022-12-03T08:25:30.327Z,96247.41
2022-12-03T08:29:42.573Z,96247.69
2022-12-03T08:34:00.154Z,96249.59
2022-12-03T08:38:13.694Z,96261.25
2022-12-03T08:42:42.555Z,96271.38
2022-12-03T08:47:02.827Z,96286.91
2022-12-03T08:51:26.307Z,96273.44
2022-12-03T08:55:40.649Z,96276.34
2022-12-03T08:59:58.871Z,96272.59
2022-12-03T09:04:39.816Z,96279.06
2022-12-03T09:08:52.164Z,96279.66
2022-12-03T09:13:04.465Z,96268.81
2022-12-03T09:17:17.068Z,96263.38
2022-12-03T09:21:29.535Z,96264.84
2022-12-03T09:25:43.298Z,96250.16
2022-12-03T09:29:56.509Z,96253.13
2022-12-03T09:34:09.539Z,96262.53
2022-12-03T09:38:23.881Z,96251.94
2022-12-03T09:42:46.554Z,96257.03
2022-12-03T09:47:01.442Z,96260.22
2022-12-03T09:51:13.934Z,96260.31
2022-12-03T09:55:28.339Z,96259.81
2022-12-03T09:59:40.678Z,96240.38
2022-12-03T10:03:53.852Z,96244.47
2022-12-03T10:08:09.139Z,96240.47
2022-12-03T10:12:25.590Z,96232.59
2022-12-03T10:16:40.925Z,96222.81
2022-12-03T10:20:54.023Z,96227.09
2022-12-03T10:25:15.805Z,96224.31
2022-12-03T10:29:37.045Z,96198.91
2022-12-03T10:33:59.028Z,96212.88
2022-12-03T10:38:17.904Z,96198.72
2022-12-03T10:42:35.164Z,96193.22
2022-12-03T10:47:06.699Z,96192.50
2022-12-03T10:51:23.475Z,96189.88
2022-12-03T10:55:41.695Z,96176.50
2022-12-03T10:59:53.962Z,96172.94
2022-12-03T11:04:06.382Z,96183.16
2022-12-03T11:08:33.290Z,96177.94
2022-12-03T11:13:23.515Z,96179.69
2022-12-03T11:17:44.590Z,96169.78
2022-12-03T11:22:06.805Z,96156.59
2022-12-03T11:26:40.095Z,96161.56
2022-12-03T11:30:52.352Z,96163.78
2022-12-03T11:35:25.914Z,96181.53
2022-12-03T11:39:50.413Z,96170.13
2022-12-03T11:44:06.578Z,96180.25
2022-12-03T11:48:27.248Z,96172.50
2022-12-03T11:52:43.520Z,96169.09
2022-12-03T11:57:26.486Z,96152.53
2022-12-03T12:01:43.706Z,96157.84
2022-12-03T12:06:22.487Z,96179.13
2022-12-03T12:10:49.830Z,96169.94
2022-12-03T12:15:34.051Z,96166.47
2022-12-03T12:19:51.087Z,96149.03
2022-12-03T12:24:47.681Z,96154.44
2022-12-03T12:28:59.950Z,96135.13
2022-12-03T12:33:17.244Z,96126.03
2022-12-03T12:37:48.116Z,96133.97
2022-12-03T12:42:01.735Z,96123.28
2022-12-03T12:46:46.094Z,96124.28
2022-12-03T12:50:49.246Z,96121.41
2022-12-03T12:55:04.885Z,96118.84
2022-12-03T12:59:25.063Z,96109.59
2022-12-03T13:03:40.019Z,96104.81
2022-12-03T13:07:53.684Z,96099.22
2022-12-03T13:12:18.279Z,96097.72
2022-12-03T13:16:33.430Z,96094.53
2022-12-03T13:20:45.750Z,96105.78
2022-12-03T13:25:01.731Z,96101.59
2022-12-03T13:29:19.466Z,96092.34
2022-12-03T13:33:32.251Z,96089.59
2022-12-03T13:37:45.728Z,96069.63
2022-12-03T13:42:38.869Z,96080.88
2022-12-03T13:46:51.163Z,96074.34
2022-12-03T13:51:33.647Z,96080.72
2022-12-03T13:55:48.981Z,96074.06
2022-12-03T14:00:01.305Z,96069.53
2022-12-03T14:04:13.649Z,96074.03
2022-12-03T14:08:25.905Z,96082.94
2022-12-03T14:12:38.181Z,96075.78
2022-12-03T14:16:58.238Z,96087.88
2022-12-03T14:21:11.962Z,96082.88
2022-12-03T14:25:24.231Z,96076.19
2022-12-03T14:29:36.537Z,96076.91
2022-12-03T14:33:48.800Z,96078.97
2022-12-03T14:38:01.171Z,96081.75
2022-12-03T14:42:16.242Z,96084.94
2022-12-03T14:46:34.689Z,96078.25
2022-12-03T14:50:46.942Z,96073.22
2022-12-03T14:55:09.621Z,96072.03
2022-12-03T14:59:27.408Z,96086.34
2022-12-03T15:03:40.256Z,96077.22
2022-12-03T15:07:52.697Z,96065.53
2022-12-03T15:12:05.571Z,96077.38
2022-12-03T15:16:17.895Z,96077.47
2022-12-03T15:20:30.594Z,96064.38
2022-12-03T15:24:42.855Z,96072.41
2022-12-03T15:28:55.132Z,96063.25
2022-12-03T15:33:07.475Z,96069.56
2022-12-03T15:37:20.273Z,96060.91
2022-12-03T15:41:32.615Z,96073.53
2022-12-03T15:45:45.230Z,96067.19
2022-12-03T15:49:57.564Z,96076.50
2022-12-03T15:54:19.863Z,96065.22
2022-12-03T15:58:32.140Z,96056.25
2022-12-03T16:02:50.816Z,96056.25
2022-12-03T16:07:14.807Z,96041.66
2022-12-03T16:11:28.163Z,96061.34
2022-12-03T16:15:40.479Z,96050.41
2022-12-03T16:19:53.137Z,96059.28
2022-12-03T16:24:06.087Z,96064.28
2022-12-03T16:28:19.707Z,96061.72
2022-12-03T16:32:31.986Z,96063.66
2022-12-03T16:36:46.464Z,96060.31
2022-12-03T16:40:58.740Z,96050.03
2022-12-03T16:45:41.416Z,96062.44
2022-12-03T16:49:53.883Z,96055.53
2022-12-03T16:54:06.373Z,96052.41
2022-12-03T16:58:21.971Z,96067.44
2022-12-03T17:02:34.388Z,96056.28
2022-12-03T17:06:46.686Z,96060.31
2022-12-03T17:10:59.075Z,96062.75
2022-12-03T17:15:11.810Z,96053.53
2022-12-03T17:19:34.145Z,96044.91
2022-12-03T17:23:49.551Z,96035.56
2022-12-03T17:28:11.798Z,96024.66
2022-12-03T17:32:24.074Z,96029.53
2022-12-03T17:36:36.353Z,96037.06
2022-12-03T17:40:48.627Z,96025.81
2022-12-03T17:45:00.971Z,96019.94
2022-12-03T17:49:13.265Z,96023.16
2022-12-03T17:53:25.787Z,96027.03
2022-12-03T17:57:39.131Z,96026.22
2022-12-03T18:01:51.572Z,96042.91
2022-12-03T18:06:04.704Z,96029.09
2022-12-03T18:10:17.207Z,96034.75
2022-12-03T18:14:29.479Z,96033.97
2022-12-03T18:18:42.453Z,96026.09
2022-12-03T18:22:54.760Z,96002.47
2022-12-03T18:27:10.106Z,96014.16
2022-12-03T18:31:23.528Z,96025.63
2022-12-03T18:35:35.997Z,96031.16
2022-12-03T18:39:53.639Z,96020.75
2022-12-03T18:44:10.581Z,96017.66
2022-12-03T18:48:23.109Z,96017.66
2022-12-03T18:52:35.380Z,96006.88
2022-12-03T18:56:47.690Z,96000.88
2022-12-03T19:01:00.071Z,96001.94
2022-12-03T19:05:12.477Z,96004.84
2022-12-03T19:09:24.851Z,96013.00
2022-12-03T19:13:37.161Z,96015.56
2022-12-03T19:17:50.568Z,96027.81
2022-12-03T19:22:02.942Z,96020.38
2022-12-03T19:26:15.715Z,96023.47
2022-12-03T19:30:27.997Z,96005.25
2022-12-03T19:34:40.372Z,96005.47
2022-12-03T19:38:57.091Z,96004.34
2022-12-03T19:43:09.972Z,95994.50
2022-12-03T19:47:25.354Z,95993.38
2022-12-03T19:51:37.993Z,96003.41
2022-12-03T19:55:50.393Z,95996.84
2022-12-03T20:00:13.279Z,95993.81
2022-12-03T20:04:25.594Z,95993.00
2022-12-03T20:08:38.630Z,96001.72
2022-12-03T20:12:50.894Z,95999.56
2022-12-03T20:17:03.285Z,95988.69
2022-12-03T20:21:17.121Z,95984.56
2022-12-03T20:25:29.378Z,95972.66
2022-12-03T20:29:42.067Z,95964.75
2022-12-03T20:33:56.927Z,95979.06
2022-12-03T20:38:09.218Z,95961.69
2022-12-03T20:42:21.511Z,95943.06
2022-12-03T20:46:34.393Z,95956.25
2022-12-03T20:50:46.804Z,95970.13
2022-12-03T20:54:59.071Z,95962.19
2022-12-03T20:59:14.056Z,95963.88
2022-12-03T21:03:28.245Z,95948.94
2022-12-03T21:07:40.677Z,95957.97
2022-12-03T21:11:53.119Z,95945.50
2022-12-03T21:16:07.786Z,95933.69
2022-12-03T21:20:23.015Z,95938.53
2022-12-03T21:24:35.496Z,95931.59
2022-12-03T21:28:49.401Z,95940.84
2022-12-03T21:33:11.705Z,95937.97
2022-12-03T21:37:23.959Z,95932.13
2022-12-03T21:41:36.448Z,95924.06
2022-12-03T21:45:49.017Z,95924.44
2022-12-03T21:50:01.398Z,95918.16
2022-12-03T21:54:13.670Z,95912.69
2022-12-03T21:58:26.364Z,95930.00
2022-12-03T22:02:40.978Z,95921.81
2022-12-03T22:06:53.295Z,95920.06
2022-12-03T22:11:11.967Z,95932.81
2022-12-03T22:15:24.233Z,95927.00
2022-12-03T22:19:37.239Z,95920.84
2022-12-03T22:23:49.493Z,95924.66
2022-12-03T22:28:01.791Z,95928.06
2022-12-03T22:32:14.045Z,95927.47
2022-12-03T22:36:26.323Z,95924.59
2022-12-03T22:40:40.392Z,95927.97
2022-12-03T22:44:52.760Z,95899.97
2022-12-03T22:49:07.437Z,95900.06
2022-12-03T22:53:20.699Z,95906.31
2022-12-03T22:57:33.108Z,95890.84
2022-12-03T23:01:48.745Z,95897.91
2022-12-03T23:06:01.124Z,95897.84
2022-12-03T23:10:13.407Z,95883.34
2022-12-03T23:14:28.593Z,95874.31
2022-12-03T23:18:40.874Z,95883.88
2022-12-03T23:22:53.731Z,95876.22
2022-12-03T23:27:06.020Z,95862.75
2022-12-03T23:31:18.293Z,95868.72
2022-12-03T23:35:30.758Z,95873.59
2022-12-03T23:39:43.275Z,95865.53
2022-12-03T23:43:57.297Z,95861.88
2022-12-03T23:48:10.228Z,95848.13
2022-12-03T23:52:22.507Z,95851.19
2022-12-03T23:56:40.320Z,95852.75
